createdAt,value
2018-02-15T00:00:43.005Z,-4.80
2018-02-15T00:03:13.068Z,-4.90
2018-02-15T00:05:44.076Z,-4.84
2018-02-15T00:08:14.138Z,-4.89
2018-02-15T00:10:43.982Z,-4.88
2018-02-15T00:13:13.783Z,-5.04
2018-02-15T00:15:43.612Z,-5.15
2018-02-15T00:18:13.382Z,-5.31
2018-02-15T00:20:43.388Z,-5.43
2018-02-15T00:23:13.218Z,-5.50
2018-02-15T00:25:43.057Z,-5.54
2018-02-15T00:28:12.894Z,-5.55
2018-02-15T00:30:42.488Z,-5.39
2018-02-15T00:33:14.042Z,-5.22
2018-02-15T00:38:21.060Z,-5.30
2018-02-15T00:40:50.907Z,-5.41
2018-02-15T00:43:20.837Z,-5.45
2018-02-15T00:45:52.694Z,-5.49
2018-02-15T00:48:23.353Z,-5.58
2018-02-15T00:50:53.176Z,-5.54
2018-02-15T00:53:24.505Z,-5.13
2018-02-15T00:55:54.435Z,-5.03
2018-02-15T00:58:24.243Z,-5.22
2018-02-15T01:00:54.072Z,-5.33
2018-02-15T01:03:23.907Z,-5.47
2018-02-15T01:05:53.808Z,-5.56
2018-02-15T01:08:24.644Z,-5.69
2018-02-15T01:10:54.451Z,-5.75
2018-02-15T01:13:24.281Z,-5.85
2018-02-15T01:15:54.093Z,-5.77
2018-02-15T01:18:25.010Z,-5.80
2018-02-15T01:20:54.823Z,-5.86
2018-02-15T01:23:24.750Z,-5.93
2018-02-15T01:25:54.568Z,-6.04
2018-02-15T01:28:26.618Z,-6.11
2018-02-15T01:30:56.734Z,-6.21
2018-02-15T01:33:26.543Z,-6.26
2018-02-15T01:35:56.372Z,-6.29
2018-02-15T01:38:26.185Z,-6.27
2018-02-15T01:40:57.433Z,-6.35
2018-02-15T01:43:28.325Z,-6.25
2018-02-15T01:45:58.146Z,-6.29
2018-02-15T01:48:27.961Z,-6.29
2018-02-15T01:50:57.532Z,-6.27
2018-02-15T01:53:28.491Z,-6.23
2018-02-15T01:55:59.003Z,-6.26
2018-02-15T01:58:28.838Z,-6.34
2018-02-15T02:00:58.652Z,-6.26
2018-02-15T02:03:28.480Z,-6.11
2018-02-15T02:05:58.364Z,-6.05
2018-02-15T02:08:28.195Z,-6.16
2018-02-15T02:10:58.017Z,-6.23
2018-02-15T02:13:27.820Z,-6.26
2018-02-15T02:15:57.946Z,-6.31
2018-02-15T02:18:28.243Z,-6.36
2018-02-15T02:20:58.059Z,-6.29
2018-02-15T02:23:28.771Z,-6.22
2018-02-15T02:25:58.576Z,-6.24
2018-02-15T02:28:28.747Z,-6.36
2018-02-15T02:30:58.680Z,-6.29
2018-02-15T02:36:07.352Z,-6.16
2018-02-15T02:38:39.169Z,-6.23
2018-02-15T02:41:09.015Z,-6.23
2018-02-15T02:43:38.822Z,-6.33
2018-02-15T02:46:08.756Z,-6.39
2018-02-15T02:48:38.650Z,-6.43
2018-02-15T02:51:11.574Z,-6.46
2018-02-15T02:53:41.458Z,-6.46
2018-02-15T02:56:11.268Z,-6.48
2018-02-15T02:58:44.419Z,-6.53
2018-02-15T03:01:14.326Z,-6.57
2018-02-15T03:03:44.180Z,-6.52
2018-02-15T03:06:14.104Z,-6.57
2018-02-15T03:08:43.916Z,-6.58
2018-02-15T03:11:13.562Z,-6.57
2018-02-15T03:13:45.717Z,-6.60
2018-02-15T03:16:15.572Z,-6.55
2018-02-15T03:18:45.373Z,-6.66
2018-02-15T03:21:15.237Z,-6.71
2018-02-15T03:23:45.873Z,-6.80
2018-02-15T03:26:16.792Z,-6.81
2018-02-15T03:28:46.681Z,-6.82
2018-02-15T03:31:16.505Z,-6.62
2018-02-15T03:33:46.326Z,-6.71
2018-02-15T03:36:16.153Z,-6.74
2018-02-15T03:38:45.964Z,-6.84
2018-02-15T03:41:15.841Z,-6.93
2018-02-15T03:43:45.657Z,-6.98
2018-02-15T03:46:16.285Z,-6.77
2018-02-15T03:48:46.222Z,-6.72
2018-02-15T03:51:16.027Z,-6.62
2018-02-15T03:53:49.432Z,-6.50
2018-02-15T03:56:19.276Z,-6.69
2018-02-15T03:58:49.173Z,-6.54
2018-02-15T04:01:19.022Z,-6.71
2018-02-15T04:03:50.641Z,-6.76
2018-02-15T04:06:23.327Z,-6.63
2018-02-15T04:08:53.145Z,-6.78
2018-02-15T04:11:24.945Z,-6.91
2018-02-15T04:13:54.765Z,-6.85
2018-02-15T04:16:24.590Z,-7.01
2018-02-15T04:18:54.584Z,-6.98
2018-02-15T04:21:25.029Z,-7.04
2018-02-15T04:23:54.969Z,-7.10
2018-02-15T04:26:28.841Z,-7.15
2018-02-15T04:28:58.667Z,-7.14
2018-02-15T04:31:28.984Z,-7.07
2018-02-15T04:33:58.805Z,-6.98
2018-02-15T04:36:28.981Z,-6.96
2018-02-15T04:38:58.566Z,-6.97
2018-02-15T04:41:28.387Z,-6.98
2018-02-15T04:43:58.235Z,-6.84
2018-02-15T04:46:28.037Z,-6.85
2018-02-15T04:48:59.722Z,-6.97
2018-02-15T04:51:29.540Z,-7.12
2018-02-15T04:53:59.486Z,-7.18
2018-02-15T04:56:29.349Z,-7.09
2018-02-15T04:58:59.178Z,-7.14
2018-02-15T05:01:29.050Z,-7.18
2018-02-15T05:04:00.053Z,-7.18
2018-02-15T05:06:30.000Z,-7.20
2018-02-15T05:08:59.942Z,-7.22
2018-02-15T05:11:34.350Z,-7.21
2018-02-15T05:14:04.235Z,-7.13
2018-02-15T05:16:34.044Z,-7.07
2018-02-15T05:19:03.863Z,-7.08
2018-02-15T05:21:34.063Z,-7.14
2018-02-15T05:24:03.903Z,-7.18
2018-02-15T05:26:33.735Z,-7.22
2018-02-15T05:29:03.527Z,-7.29
2018-02-15T05:31:33.344Z,-7.35
2018-02-15T05:34:03.160Z,-7.26
2018-02-15T05:36:32.970Z,-7.31
2018-02-15T05:39:02.625Z,-7.28
2018-02-15T05:41:33.045Z,-7.03
2018-02-15T05:44:02.898Z,-7.02
2018-02-15T05:46:32.748Z,-7.01
2018-02-15T05:49:02.661Z,-6.94
2018-02-15T05:51:32.599Z,-6.99
2018-02-15T05:54:02.430Z,-6.95
2018-02-15T05:56:32.302Z,-6.89
2018-02-15T05:59:02.408Z,-6.82
2018-02-15T06:01:32.515Z,-6.76
2018-02-15T06:04:02.485Z,-6.68
2018-02-15T06:06:32.437Z,-6.84
2018-02-15T06:09:02.269Z,-6.84
2018-02-15T06:11:31.879Z,-6.90
2018-02-15T06:14:01.900Z,-6.84
2018-02-15T06:16:31.890Z,-6.90
2018-02-15T06:19:02.079Z,-6.91
2018-02-15T06:21:31.900Z,-6.87
2018-02-15T06:24:02.474Z,-6.80
2018-02-15T06:26:33.445Z,-6.62
2018-02-15T06:29:03.617Z,-6.44
2018-02-15T06:31:33.876Z,-6.39
2018-02-15T06:34:03.766Z,-6.17
2018-02-15T06:36:38.143Z,-6.13
2018-02-15T06:39:08.183Z,-6.04
2018-02-15T06:41:39.315Z,-5.80
2018-02-15T06:44:11.003Z,-5.51
2018-02-15T06:46:41.451Z,-5.29
2018-02-15T06:49:11.484Z,-4.92
2018-02-15T06:51:41.603Z,-4.58
2018-02-15T06:54:11.275Z,-4.19
2018-02-15T06:56:42.463Z,-3.83
2018-02-15T06:59:12.553Z,-3.54
2018-02-15T07:01:42.593Z,-3.21
2018-02-15T07:04:12.796Z,-2.91
2018-02-15T07:06:42.464Z,-2.64
2018-02-15T07:09:12.325Z,-2.41
2018-02-15T07:11:42.199Z,-2.06
2018-02-15T07:14:12.178Z,-1.87
2018-02-15T07:16:42.040Z,-1.61
2018-02-15T07:19:14.176Z,-1.39
2018-02-15T07:21:44.388Z,-1.14
2018-02-15T07:24:15.236Z,-1.04
2018-02-15T07:26:45.731Z,-0.73
2018-02-15T07:29:20.395Z,-0.41
2018-02-15T07:31:50.305Z,-0.21
2018-02-15T07:34:20.008Z,0.14
2018-02-15T07:36:49.960Z,0.57
2018-02-15T07:39:19.819Z,0.10
2018-02-15T07:41:49.656Z,0.67
2018-02-15T07:44:19.686Z,0.66
2018-02-15T07:46:49.547Z,1.02
2018-02-15T07:49:19.362Z,1.32
2018-02-15T07:51:49.541Z,1.05
2018-02-15T07:54:19.548Z,1.33
2018-02-15T07:56:49.200Z,1.32
2018-02-15T07:59:18.830Z,1.56
2018-02-15T08:01:49.014Z,1.83
2018-02-15T08:04:18.833Z,1.86
2018-02-15T08:06:48.657Z,1.56
2018-02-15T08:09:18.567Z,1.50
2018-02-15T08:11:48.418Z,1.76
2018-02-15T08:14:18.218Z,1.76
2018-02-15T08:16:48.177Z,1.52
2018-02-15T08:19:18.431Z,1.64
2018-02-15T08:21:48.355Z,1.85
2018-02-15T08:24:18.188Z,1.98
2018-02-15T08:26:48.003Z,1.89
2018-02-15T08:29:17.876Z,1.65
2018-02-15T08:31:47.841Z,2.34
2018-02-15T08:34:17.856Z,2.49
2018-02-15T08:36:48.342Z,2.59
2018-02-15T08:39:18.339Z,2.70
2018-02-15T08:41:48.216Z,2.74
2018-02-15T08:44:18.084Z,3.19
2018-02-15T08:46:48.212Z,2.49
2018-02-15T08:49:18.163Z,2.59
2018-02-15T08:51:48.037Z,2.41
2018-02-15T08:54:17.856Z,3.12
2018-02-15T08:56:47.741Z,2.99
2018-02-15T08:59:17.550Z,3.47
2018-02-15T09:01:47.383Z,3.07
2018-02-15T09:04:17.200Z,2.84
2018-02-15T09:06:47.058Z,3.35
2018-02-15T09:09:17.348Z,4.15
2018-02-15T09:11:47.212Z,3.56
2018-02-15T09:14:17.082Z,2.72
2018-02-15T09:16:46.980Z,2.85
2018-02-15T09:19:16.884Z,2.75
2018-02-15T09:21:46.760Z,3.70
2018-02-15T09:24:16.789Z,3.79
2018-02-15T09:26:46.645Z,3.73
2018-02-15T09:29:16.492Z,3.67
2018-02-15T09:31:46.292Z,3.48
2018-02-15T09:34:16.110Z,4.08
2018-02-15T09:36:45.948Z,3.82
2018-02-15T09:39:15.837Z,3.97
2018-02-15T09:41:45.661Z,5.16
2018-02-15T09:44:15.470Z,5.18
2018-02-15T09:46:45.290Z,5.50
2018-02-15T09:49:15.288Z,5.51
2018-02-15T09:51:45.115Z,5.26
2018-02-15T09:54:14.927Z,5.16
2018-02-15T09:56:44.964Z,5.04
2018-02-15T09:59:14.821Z,5.24
2018-02-15T10:01:44.642Z,4.27
2018-02-15T10:04:14.482Z,4.90
2018-02-15T10:06:44.312Z,5.40
2018-02-15T10:09:14.143Z,5.16
2018-02-15T10:11:44.030Z,5.20
2018-02-15T10:14:13.875Z,5.87
2018-02-15T10:16:43.847Z,6.04
2018-02-15T10:19:14.579Z,4.96
2018-02-15T10:21:44.378Z,5.58
2018-02-15T10:24:14.208Z,5.90
2018-02-15T10:26:44.049Z,6.65
2018-02-15T10:29:13.834Z,8.36
2018-02-15T10:31:43.647Z,6.75
2018-02-15T10:34:13.469Z,7.50
2018-02-15T10:36:43.563Z,8.54
2018-02-15T10:39:13.407Z,9.82
2018-02-15T10:41:43.234Z,8.33
2018-02-15T10:44:13.067Z,8.60
2018-02-15T10:46:42.874Z,9.09
2018-02-15T10:49:13.599Z,9.55
2018-02-15T10:51:43.448Z,10.29
2018-02-15T10:54:14.244Z,10.08
2018-02-15T10:56:43.962Z,10.01
2018-02-15T10:59:13.799Z,10.36
2018-02-15T11:01:43.681Z,10.06
2018-02-15T11:04:18.974Z,10.37
2018-02-15T11:06:48.828Z,10.28
2018-02-15T11:09:19.189Z,10.54
2018-02-15T11:11:49.028Z,11.30
2018-02-15T11:14:18.851Z,11.54
2018-02-15T11:16:48.586Z,10.08
2018-02-15T11:19:18.563Z,10.02
2018-02-15T11:21:48.352Z,9.52
2018-02-15T11:24:18.179Z,10.62
2018-02-15T11:26:48.018Z,9.06
2018-02-15T11:29:17.882Z,10.74
2018-02-15T11:31:47.867Z,8.43
2018-02-15T11:34:17.742Z,10.17
2018-02-15T11:36:47.597Z,10.13
2018-02-15T11:39:17.444Z,12.96
2018-02-15T11:41:47.290Z,8.11
2018-02-15T11:44:17.159Z,9.56
2018-02-15T11:46:46.986Z,10.16
2018-02-15T11:49:16.803Z,8.64
2018-02-15T11:51:46.662Z,8.92
2018-02-15T11:54:16.481Z,9.83
2018-02-15T11:56:46.387Z,11.30
2018-02-15T11:59:16.253Z,13.44
2018-02-15T12:01:46.087Z,10.55
2018-02-15T12:04:15.922Z,8.45
2018-02-15T12:06:45.853Z,10.22
2018-02-15T12:09:15.904Z,10.24
2018-02-15T12:12:00.689Z,11.93
2018-02-15T12:14:30.518Z,9.12
2018-02-15T12:17:00.419Z,12.29
2018-02-15T12:19:30.536Z,12.99
2018-02-15T12:22:00.395Z,12.23
2018-02-15T12:24:30.221Z,13.27
2018-02-15T12:26:59.776Z,14.40
2018-02-15T12:29:29.268Z,15.47
2018-02-15T12:31:59.333Z,16.13
2018-02-15T12:34:29.093Z,16.33
2018-02-15T12:36:58.669Z,15.36
2018-02-15T12:39:28.370Z,19.39
2018-02-15T12:41:58.260Z,16.03
2018-02-15T12:44:28.810Z,17.02
2018-02-15T12:46:58.361Z,10.29
2018-02-15T12:49:28.001Z,11.19
2018-02-15T12:51:57.578Z,13.59
2018-02-15T12:54:27.858Z,14.41
2018-02-15T12:56:57.431Z,10.60
2018-02-15T12:59:27.394Z,12.15
2018-02-15T13:01:57.239Z,13.23
2018-02-15T13:04:27.125Z,12.35
2018-02-15T13:06:56.995Z,12.37
2018-02-15T13:09:26.905Z,11.98
2018-02-15T13:11:56.868Z,12.68
2018-02-15T13:14:26.437Z,14.52
2018-02-15T13:16:57.604Z,15.91
2018-02-15T13:19:38.517Z,14.76
2018-02-15T13:22:19.075Z,18.60
2018-02-15T13:24:48.354Z,16.38
2018-02-15T13:27:17.716Z,17.45
2018-02-15T13:29:46.976Z,16.35
2018-02-15T13:32:16.523Z,14.37
2018-02-15T13:34:46.069Z,12.22
2018-02-15T13:37:15.386Z,15.91
2018-02-15T13:39:45.244Z,19.10
2018-02-15T13:42:15.204Z,14.66
2018-02-15T13:44:45.131Z,12.76
2018-02-15T13:47:14.792Z,16.59
2018-02-15T13:49:44.617Z,17.24
2018-02-15T13:52:16.904Z,17.66
2018-02-15T13:54:46.660Z,13.41
2018-02-15T13:57:16.182Z,11.36
2018-02-15T13:59:45.442Z,12.77
2018-02-15T14:02:15.347Z,13.02
2018-02-15T14:04:46.489Z,10.84
2018-02-15T14:07:16.368Z,12.84
2018-02-15T14:09:46.934Z,9.84
2018-02-15T14:12:16.673Z,11.47
2018-02-15T14:14:46.603Z,9.21
2018-02-15T14:17:16.426Z,9.44
2018-02-15T14:19:46.220Z,7.99
2018-02-15T14:22:16.256Z,8.01
2018-02-15T14:24:46.208Z,6.53
2018-02-15T14:27:16.073Z,7.54
2018-02-15T14:29:45.905Z,7.10
2018-02-15T14:32:15.791Z,5.68
2018-02-15T14:34:45.641Z,6.12
2018-02-15T14:37:15.498Z,5.78
2018-02-15T14:39:45.854Z,5.94
2018-02-15T14:42:15.706Z,5.77
2018-02-15T14:44:47.073Z,5.26
2018-02-15T14:47:17.084Z,5.66
2018-02-15T14:49:47.147Z,5.41
2018-02-15T14:52:16.972Z,5.39
2018-02-15T14:54:46.917Z,5.52
2018-02-15T14:57:16.789Z,5.15
2018-02-15T14:59:46.986Z,4.71
2018-02-15T15:02:16.895Z,4.72
2018-02-15T15:04:46.837Z,4.50
2018-02-15T15:07:17.044Z,4.56
2018-02-15T15:09:47.202Z,4.72
2018-02-15T15:12:18.192Z,4.50
2018-02-15T15:14:48.065Z,4.40
2018-02-15T15:17:17.984Z,4.41
2018-02-15T15:19:48.048Z,4.47
2018-02-15T15:22:18.025Z,4.63
2018-02-15T15:24:48.794Z,4.63
2018-02-15T15:27:18.753Z,4.65
2018-02-15T15:29:48.627Z,4.83
2018-02-15T15:32:19.765Z,4.83
2018-02-15T15:34:49.844Z,4.61
2018-02-15T15:37:19.895Z,4.58
2018-02-15T15:39:49.704Z,4.51
2018-02-15T15:42:19.543Z,4.57
2018-02-15T15:44:49.351Z,4.47
2018-02-15T15:47:19.325Z,4.27
2018-02-15T15:49:49.210Z,4.28
2018-02-15T15:52:19.286Z,4.37
2018-02-15T15:54:49.089Z,4.18
2018-02-15T15:57:18.962Z,4.28
2018-02-15T15:59:48.824Z,4.21
2018-02-15T16:02:18.950Z,4.16
2018-02-15T16:04:48.812Z,4.12
2018-02-15T16:07:19.396Z,4.00
2018-02-15T16:09:49.370Z,3.98
2018-02-15T16:12:19.230Z,3.91
2018-02-15T16:14:49.442Z,3.89
2018-02-15T16:17:20.094Z,3.89
2018-02-15T16:19:50.100Z,3.83
2018-02-15T16:22:20.099Z,3.94
2018-02-15T16:24:51.348Z,3.88
2018-02-15T16:27:22.314Z,3.79
2018-02-15T16:29:52.246Z,3.81
2018-02-15T16:32:22.533Z,3.76
2018-02-15T16:34:53.322Z,3.75
2018-02-15T16:37:23.377Z,3.77
2018-02-15T16:39:53.281Z,3.64
2018-02-15T16:42:23.348Z,3.61
2018-02-15T16:44:53.474Z,3.84
2018-02-15T16:47:28.719Z,3.66
2018-02-15T16:49:59.262Z,3.67
2018-02-15T16:52:29.586Z,3.82
2018-02-15T16:54:59.566Z,3.68
2018-02-15T16:57:30.432Z,3.80
2018-02-15T17:00:00.491Z,3.69
2018-02-15T17:02:30.572Z,3.74
2018-02-15T17:05:02.459Z,3.69
2018-02-15T17:07:32.770Z,3.77
2018-02-15T17:10:02.496Z,3.85
2018-02-15T17:12:32.673Z,3.77
2018-02-15T17:15:02.713Z,3.67
2018-02-15T17:17:33.017Z,3.68
2018-02-15T17:20:03.252Z,3.60
2018-02-15T17:22:33.230Z,3.55
2018-02-15T17:25:03.402Z,3.70
2018-02-15T17:27:36.036Z,3.70
2018-02-15T17:30:06.000Z,3.76
2018-02-15T17:32:38.106Z,3.77
2018-02-15T17:35:08.148Z,3.70
2018-02-15T17:37:39.407Z,3.63
2018-02-15T17:40:13.522Z,3.59
2018-02-15T17:42:45.175Z,3.50
2018-02-15T17:45:16.101Z,3.42
2018-02-15T17:47:46.742Z,3.41
2018-02-15T17:50:16.901Z,3.37
2018-02-15T17:52:46.968Z,3.33
2018-02-15T17:55:16.890Z,3.37
2018-02-15T17:57:47.442Z,3.39
2018-02-15T18:14:03.501Z,3.20
2018-02-15T18:16:33.509Z,3.21
2018-02-15T18:19:03.441Z,3.17
2018-02-15T18:21:33.769Z,3.16
2018-02-15T18:24:03.602Z,3.14
2018-02-15T18:26:33.549Z,3.14
2018-02-15T18:29:03.376Z,3.13
2018-02-15T18:31:33.527Z,3.23
2018-02-15T18:34:05.903Z,3.32
2018-02-15T18:36:35.872Z,3.37
2018-02-15T18:39:05.229Z,3.41
2018-02-15T18:41:35.167Z,3.51
2018-02-15T18:44:13.489Z,3.57
2018-02-15T18:46:43.320Z,3.56
2018-02-15T18:49:13.359Z,3.36
2018-02-15T18:51:43.433Z,3.27
2018-02-15T18:54:13.256Z,3.17
2018-02-15T18:56:43.379Z,3.20
2018-02-15T18:59:13.301Z,3.21
2018-02-15T19:01:43.121Z,3.19
2018-02-15T19:04:14.290Z,3.16
2018-02-15T19:06:44.329Z,3.03
2018-02-15T19:09:14.177Z,3.11
2018-02-15T19:11:44.087Z,3.00
2018-02-15T19:14:14.127Z,2.94
2018-02-15T19:16:44.188Z,2.97
2018-02-15T19:19:14.109Z,2.91
2018-02-15T19:21:44.189Z,2.96
2018-02-15T19:24:14.104Z,2.98
2018-02-15T19:26:44.112Z,2.88
2018-02-15T19:29:13.935Z,2.68
2018-02-15T19:31:43.868Z,2.53
2018-02-15T19:34:13.855Z,2.49
2018-02-15T19:36:43.674Z,2.49
2018-02-15T19:39:13.583Z,2.52
2018-02-15T19:41:43.611Z,2.57
2018-02-15T19:44:13.519Z,2.51
2018-02-15T19:46:44.800Z,2.54
2018-02-15T19:49:14.786Z,2.47
2018-02-15T19:51:44.710Z,2.37
2018-02-15T19:54:14.733Z,2.35
2018-02-15T19:56:44.980Z,2.26
2018-02-15T19:59:14.887Z,2.09
2018-02-15T20:01:44.861Z,1.98
2018-02-15T20:04:14.810Z,1.94
2018-02-15T20:06:44.797Z,2.02
2018-02-15T20:09:14.623Z,2.05
2018-02-15T20:11:44.804Z,2.10
2018-02-15T20:14:14.776Z,2.05
2018-02-15T20:16:52.949Z,1.94
2018-02-15T20:19:28.410Z,1.86
2018-02-15T20:21:58.347Z,1.84
2018-02-15T20:24:28.310Z,1.84
2018-02-15T20:27:04.141Z,1.81
2018-02-15T20:29:34.299Z,1.77
2018-02-15T20:32:04.286Z,1.78
2018-02-15T20:34:34.502Z,1.80
2018-02-15T20:37:04.519Z,1.80
2018-02-15T20:39:39.995Z,1.78
2018-02-15T20:42:09.915Z,1.73
2018-02-15T20:44:40.453Z,1.77
2018-02-15T20:47:10.286Z,1.73
2018-02-15T20:49:45.686Z,1.68
2018-02-15T20:52:20.844Z,1.81
2018-02-15T20:54:56.831Z,1.80
2018-02-15T20:57:26.891Z,1.81
2018-02-15T20:59:56.758Z,1.79
2018-02-15T21:02:26.684Z,1.75
2018-02-15T21:04:56.967Z,1.74
2018-02-15T21:07:27.029Z,1.69
2018-02-15T21:09:57.656Z,1.70
2018-02-15T21:12:27.630Z,1.70
2018-02-15T21:14:58.091Z,1.60
2018-02-15T21:17:28.182Z,1.58
2018-02-15T21:19:58.022Z,1.68
2018-02-15T21:22:27.948Z,1.60
2018-02-15T21:24:57.999Z,1.58
2018-02-15T21:27:28.368Z,1.77
2018-02-15T21:29:58.409Z,1.61
2018-02-15T21:32:28.416Z,1.52
2018-02-15T21:34:58.183Z,1.52
2018-02-15T21:37:28.285Z,1.59
2018-02-15T21:39:58.217Z,1.66
2018-02-15T21:42:28.164Z,1.66
2018-02-15T21:44:58.026Z,1.64
2018-02-15T21:47:27.876Z,1.64
2018-02-15T21:49:58.437Z,1.64
2018-02-15T21:52:28.521Z,1.64
2018-02-15T21:54:58.424Z,1.66
2018-02-15T21:57:28.416Z,1.64
2018-02-15T21:59:58.244Z,1.61
2018-02-15T22:02:28.175Z,1.67
2018-02-15T22:04:58.032Z,1.68
2018-02-15T22:10:08.189Z,1.64
2018-02-15T22:12:38.031Z,1.63
2018-02-15T22:15:08.589Z,1.67
2018-02-15T22:17:38.420Z,1.75
2018-02-15T22:20:08.406Z,1.75
2018-02-15T22:22:38.656Z,1.76
2018-02-15T22:25:08.547Z,1.73
2018-02-15T22:27:38.381Z,1.80
2018-02-15T22:30:08.352Z,1.78
2018-02-15T22:32:38.299Z,1.79
2018-02-15T22:35:08.254Z,1.80
2018-02-15T22:37:38.296Z,1.85
2018-02-15T22:40:10.089Z,1.84
2018-02-15T22:42:40.250Z,1.88
2018-02-15T22:45:10.382Z,1.95
2018-02-15T22:47:41.083Z,2.08
2018-02-15T22:50:10.938Z,2.13
2018-02-15T22:52:40.774Z,1.95
2018-02-15T22:55:10.604Z,1.99
2018-02-15T22:57:40.709Z,1.91
2018-02-15T23:00:10.516Z,1.88
2018-02-15T23:02:40.493Z,1.86
2018-02-15T23:05:10.026Z,1.84
2018-02-15T23:07:39.877Z,1.87
2018-02-15T23:10:10.072Z,2.04
2018-02-15T23:12:40.390Z,2.13
2018-02-15T23:15:10.211Z,2.16
2018-02-15T23:17:40.024Z,2.18
2018-02-15T23:20:09.528Z,2.06
2018-02-15T23:22:39.346Z,2.02
2018-02-15T23:25:09.186Z,1.98
2018-02-15T23:27:39.094Z,2.02
2018-02-15T23:30:08.906Z,2.05
2018-02-15T23:32:38.489Z,1.97
2018-02-15T23:35:08.368Z,1.89
2018-02-15T23:37:38.590Z,1.92
2018-02-15T23:40:08.474Z,1.89
2018-02-15T23:42:38.321Z,1.87
2018-02-15T23:45:08.182Z,1.89
2018-02-15T23:47:38.022Z,1.95
2018-02-15T23:50:08.105Z,1.88
2018-02-15T23:52:38.119Z,1.89
2018-02-15T23:55:08.748Z,1.93
2018-02-15T23:57:38.796Z,1.89
